createdAt,value
2018-08-31T01:00:29.391Z,52.06
2018-08-31T01:01:29.334Z,52.79
2018-08-31T01:02:29.323Z,52.76
2018-08-31T01:03:29.318Z,52.67
2018-08-31T01:04:29.343Z,52.47
2018-08-31T01:05:29.292Z,52.79
2018-08-31T01:06:29.281Z,52.49
2018-08-31T01:07:29.265Z,52.67
2018-08-31T01:08:29.253Z,52.89
2018-08-31T01:09:29.303Z,52.89
2018-08-31T01:10:29.230Z,52.79
2018-08-31T01:11:29.223Z,52.76
2018-08-31T01:12:29.209Z,52.97
2018-08-31T01:13:29.199Z,52.69
2018-08-31T01:14:29.186Z,52.76
2018-08-31T01:15:29.220Z,52.59
2018-08-31T01:16:29.167Z,52.89
2018-08-31T01:17:29.163Z,52.49
2018-08-31T01:18:29.142Z,53.20
2018-08-31T01:19:29.132Z,52.49
2018-08-31T01:20:29.167Z,53.00
2018-08-31T01:21:29.108Z,52.67
2018-08-31T01:22:29.121Z,52.79
2018-08-31T01:23:29.086Z,53.09
2018-08-31T01:24:29.076Z,52.49
2018-08-31T01:25:29.108Z,52.39
2018-08-31T01:26:29.052Z,52.09
2018-08-31T01:27:29.043Z,52.39
2018-08-31T01:28:29.032Z,52.59
2018-08-31T01:29:29.018Z,51.98
2018-08-31T01:30:29.054Z,52.19
2018-08-31T01:31:29.000Z,52.29
2018-08-31T01:32:28.985Z,52.69
2018-08-31T01:33:28.974Z,52.69
2018-08-31T01:34:28.965Z,52.39
2018-08-31T01:35:28.999Z,52.79
2018-08-31T01:36:28.942Z,52.69
2018-08-31T01:37:28.938Z,52.19
2018-08-31T01:38:28.920Z,52.39
2018-08-31T01:39:28.906Z,52.29
2018-08-31T01:40:28.945Z,52.89
2018-08-31T01:41:28.886Z,52.29
2018-08-31T01:42:28.876Z,52.29
2018-08-31T01:43:28.865Z,52.19
2018-08-31T01:44:28.851Z,52.29
2018-08-31T01:45:28.897Z,52.89
2018-08-31T01:46:28.829Z,52.29
2018-08-31T01:47:28.818Z,52.69
2018-08-31T01:48:28.808Z,52.41
2018-08-31T01:49:28.801Z,53.09
2018-08-31T01:50:28.829Z,52.82
2018-08-31T01:51:28.774Z,52.89
2018-08-31T01:52:28.761Z,53.09
2018-08-31T01:53:28.749Z,52.49
2018-08-31T01:54:28.741Z,53.22
2018-08-31T01:55:28.775Z,52.92
2018-08-31T01:56:28.717Z,53.02
2018-08-31T01:57:28.706Z,53.22
2018-08-31T01:58:28.697Z,53.52
2018-08-31T01:59:28.685Z,53.22
2018-08-31T02:00:28.720Z,53.52
2018-08-31T02:01:28.665Z,53.93
2018-08-31T02:02:28.651Z,53.42
2018-08-31T02:03:28.640Z,54.03
2018-08-31T02:04:28.629Z,53.83
2018-08-31T02:05:28.671Z,54.53
2018-08-31T02:06:28.607Z,54.36
2018-08-31T02:07:28.599Z,54.25
2018-08-31T02:08:28.589Z,54.66
2018-08-31T02:09:28.571Z,54.56
2018-08-31T02:10:28.560Z,55.36
2018-08-31T02:11:28.595Z,54.76
2018-08-31T02:12:28.539Z,54.56
2018-08-31T02:13:28.527Z,54.76
2018-08-31T02:14:28.515Z,55.57
2018-08-31T02:15:28.505Z,55.77
2018-08-31T02:16:28.538Z,55.67
2018-08-31T02:17:28.485Z,56.27
2018-08-31T02:18:28.471Z,56.38
2018-08-31T02:19:28.462Z,56.48
2018-08-31T02:20:28.452Z,56.68
2018-08-31T02:21:28.492Z,56.98
2018-08-31T02:22:28.432Z,56.68
2018-08-31T02:23:28.417Z,56.78
2018-08-31T02:24:28.410Z,57.49
2018-08-31T02:25:28.395Z,57.69
2018-08-31T02:26:28.427Z,57.11
2018-08-31T02:27:28.379Z,57.29
2018-08-31T02:28:28.364Z,57.59
2018-08-31T02:29:28.352Z,58.00
2018-08-31T02:30:28.339Z,58.43
2018-08-31T02:31:28.373Z,58.40
2018-08-31T02:32:28.320Z,58.53
2018-08-31T02:33:28.309Z,58.00
2018-08-31T02:34:28.301Z,58.60
2018-08-31T02:35:28.282Z,58.60
2018-08-31T02:36:28.328Z,59.00
2018-08-31T02:37:28.261Z,59.23
2018-08-31T02:38:28.255Z,59.34
2018-08-31T02:39:28.240Z,59.23
2018-08-31T02:40:28.225Z,59.14
2018-08-31T02:41:28.261Z,59.03
2018-08-31T02:42:28.201Z,59.03
2018-08-31T02:43:28.191Z,58.83
2018-08-31T02:44:28.180Z,58.93
2018-08-31T02:45:28.170Z,59.94
2018-08-31T02:46:28.209Z,59.74
2018-08-31T02:47:28.161Z,59.64
2018-08-31T02:48:28.133Z,59.94
2018-08-31T02:49:28.127Z,59.64
2018-08-31T02:50:28.115Z,59.64
2018-08-31T02:51:28.149Z,59.87
2018-08-31T02:52:28.094Z,60.25
2018-08-31T02:53:28.086Z,59.64
2018-08-31T02:54:28.071Z,60.48
2018-08-31T02:55:28.054Z,60.14
2018-08-31T02:56:28.089Z,60.38
2018-08-31T02:57:28.034Z,60.45
2018-08-31T02:58:28.022Z,59.54
2018-08-31T02:59:28.023Z,60.05
2018-08-31T03:00:28.001Z,60.14
2018-08-31T03:01:28.042Z,59.54
2018-08-31T03:02:27.978Z,60.14
2018-08-31T03:03:27.965Z,60.65
2018-08-31T03:04:27.959Z,59.94
2018-08-31T03:05:27.947Z,60.85
2018-08-31T03:06:27.978Z,60.05
2018-08-31T03:07:27.924Z,59.74
2018-08-31T03:08:27.910Z,60.65
2018-08-31T03:09:27.897Z,60.07
2018-08-31T03:10:27.890Z,59.54
2018-08-31T03:11:27.930Z,60.17
2018-08-31T03:12:27.864Z,59.97
2018-08-31T03:13:27.857Z,59.97
2018-08-31T03:14:27.840Z,60.17
2018-08-31T03:15:27.829Z,60.58
2018-08-31T03:16:27.863Z,60.58
2018-08-31T03:17:27.807Z,60.68
2018-08-31T03:18:27.798Z,61.01
2018-08-31T03:19:27.788Z,61.11
2018-08-31T03:20:27.773Z,60.88
2018-08-31T03:21:27.949Z,61.08
2018-08-31T03:22:27.754Z,60.68
2018-08-31T03:23:27.738Z,60.48
2018-08-31T03:24:27.730Z,60.98
2018-08-31T03:25:27.717Z,61.11
2018-08-31T03:26:27.753Z,60.98
2018-08-31T03:27:27.697Z,61.11
2018-08-31T03:28:27.684Z,60.98
2018-08-31T03:29:27.671Z,60.88
2018-08-31T03:30:27.666Z,60.88
2018-08-31T03:31:27.696Z,61.11
2018-08-31T03:32:27.637Z,61.08
2018-08-31T03:33:27.634Z,61.29
2018-08-31T03:34:27.612Z,60.58
2018-08-31T03:35:27.608Z,61.29
2018-08-31T03:36:27.636Z,61.41
2018-08-31T03:37:27.582Z,61.01
2018-08-31T03:38:27.578Z,61.32
2018-08-31T03:39:27.567Z,61.41
2018-08-31T03:40:27.545Z,61.92
2018-08-31T03:41:27.595Z,61.35
2018-08-31T03:42:27.523Z,61.24
2018-08-31T03:43:27.536Z,61.55
2018-08-31T03:44:27.501Z,61.85
2018-08-31T03:45:27.489Z,61.75
2018-08-31T03:46:27.524Z,61.95
2018-08-31T03:47:27.470Z,61.85
2018-08-31T03:48:27.460Z,62.26
2018-08-31T03:49:27.452Z,62.26
2018-08-31T03:50:27.437Z,61.75
2018-08-31T03:51:27.471Z,61.75
2018-08-31T03:52:27.411Z,61.95
2018-08-31T03:53:27.408Z,61.85
2018-08-31T03:54:27.393Z,62.15
2018-08-31T03:55:27.377Z,61.75
2018-08-31T03:56:27.411Z,62.26
2018-08-31T03:57:27.353Z,61.75
2018-08-31T03:58:27.348Z,61.95
2018-08-31T03:59:27.343Z,61.75
2018-08-31T04:00:27.319Z,62.56
2018-08-31T04:01:27.361Z,62.15
2018-08-31T04:02:27.297Z,62.05
2018-08-31T04:03:27.287Z,61.98
2018-08-31T04:04:27.279Z,62.05
2018-08-31T04:05:27.262Z,62.59
2018-08-31T04:06:27.300Z,62.05
2018-08-31T04:07:27.242Z,62.38
2018-08-31T04:08:27.234Z,62.66
2018-08-31T04:09:27.220Z,62.38
2018-08-31T04:10:27.209Z,62.79
2018-08-31T04:11:27.250Z,62.69
2018-08-31T04:12:27.184Z,62.69
2018-08-31T04:13:27.188Z,62.89
2018-08-31T04:14:27.161Z,62.69
2018-08-31T04:15:27.153Z,62.79
2018-08-31T04:16:27.209Z,62.79
2018-08-31T04:17:27.130Z,62.69
2018-08-31T04:18:27.118Z,62.69
2018-08-31T04:19:27.106Z,62.79
2018-08-31T04:20:27.093Z,62.99
2018-08-31T04:21:27.128Z,62.89
2018-08-31T04:22:27.071Z,63.30
2018-08-31T04:23:27.059Z,63.60
2018-08-31T04:24:27.060Z,62.99
2018-08-31T04:25:27.039Z,63.50
2018-08-31T04:26:27.073Z,63.30
2018-08-31T04:27:27.026Z,63.90
2018-08-31T04:28:27.002Z,63.40
2018-08-31T04:29:27.000Z,63.63
2018-08-31T04:30:26.998Z,64.24
2018-08-31T04:31:26.971Z,64.24
2018-08-31T04:32:27.012Z,64.44
2018-08-31T04:33:26.947Z,64.14
2018-08-31T04:34:26.934Z,64.54
2018-08-31T04:35:26.925Z,64.85
2018-08-31T04:36:26.921Z,65.15
2018-08-31T04:37:26.947Z,64.75
2018-08-31T04:38:26.894Z,64.75
2018-08-31T04:39:26.881Z,64.34
2018-08-31T04:40:26.868Z,64.72
2018-08-31T04:41:26.856Z,64.31
2018-08-31T04:42:26.890Z,64.51
2018-08-31T04:43:26.834Z,64.61
2018-08-31T04:44:26.823Z,64.41
2018-08-31T04:45:26.814Z,64.31
2018-08-31T04:46:26.806Z,64.21
2018-08-31T04:47:26.839Z,64.41
2018-08-31T04:48:26.791Z,64.31
2018-08-31T04:49:26.768Z,64.21
2018-08-31T04:50:26.852Z,64.31
2018-08-31T04:51:26.744Z,64.14
2018-08-31T04:52:26.782Z,64.14
2018-08-31T04:53:26.723Z,64.01
2018-08-31T04:54:26.710Z,64.41
2018-08-31T04:55:26.698Z,64.31
2018-08-31T04:56:26.686Z,64.41
2018-08-31T04:57:26.722Z,64.34
2018-08-31T04:58:26.664Z,65.05
2018-08-31T04:59:26.660Z,64.85
2018-08-31T05:00:26.648Z,64.72
2018-08-31T05:01:26.630Z,64.34
2018-08-31T05:02:26.674Z,64.41
2018-08-31T05:03:26.610Z,65.12
2018-08-31T05:04:26.596Z,64.72
2018-08-31T05:05:26.583Z,65.02
2018-08-31T05:06:26.576Z,65.12
2018-08-31T05:07:26.620Z,64.51
2018-08-31T05:08:26.551Z,64.82
2018-08-31T05:09:26.538Z,64.75
2018-08-31T05:10:26.535Z,64.72
2018-08-31T05:11:26.524Z,64.41
2018-08-31T05:12:26.551Z,64.92
2018-08-31T05:13:26.506Z,64.82
2018-08-31T05:14:26.486Z,64.82
2018-08-31T05:15:26.474Z,64.95
2018-08-31T05:16:26.459Z,64.72
2018-08-31T05:17:26.498Z,65.02
2018-08-31T05:18:26.439Z,64.75
2018-08-31T05:19:26.425Z,65.02
2018-08-31T05:20:26.415Z,65.45
2018-08-31T05:21:26.406Z,65.22
2018-08-31T05:22:26.461Z,65.53
2018-08-31T05:23:26.380Z,65.62
2018-08-31T05:24:26.370Z,65.05
2018-08-31T05:25:26.361Z,65.32
2018-08-31T05:26:26.347Z,65.42
2018-08-31T05:27:26.381Z,65.12
2018-08-31T05:28:26.447Z,65.32
2018-08-31T05:29:26.314Z,65.62
2018-08-31T05:30:26.334Z,65.32
2018-08-31T05:31:26.296Z,65.12
2018-08-31T05:32:26.324Z,65.12
2018-08-31T05:33:26.279Z,65.53
2018-08-31T05:34:26.255Z,64.82
2018-08-31T05:35:26.243Z,65.22
2018-08-31T05:36:26.234Z,65.02
2018-08-31T05:37:26.269Z,65.42
2018-08-31T05:38:26.213Z,64.95
2018-08-31T05:39:26.200Z,65.42
2018-08-31T05:40:26.189Z,65.62
2018-08-31T05:41:26.180Z,65.62
2018-08-31T05:42:26.214Z,65.66
2018-08-31T05:43:26.153Z,65.56
2018-08-31T05:44:26.143Z,65.66
2018-08-31T05:45:26.136Z,65.25
2018-08-31T05:46:26.122Z,65.36
2018-08-31T05:47:26.159Z,65.62
2018-08-31T05:48:26.104Z,66.44
2018-08-31T05:49:26.089Z,66.24
2018-08-31T05:50:26.077Z,65.83
2018-08-31T05:51:26.067Z,65.93
2018-08-31T05:52:26.099Z,65.86
2018-08-31T05:53:26.078Z,65.53
2018-08-31T05:54:26.029Z,65.73
2018-08-31T05:55:26.023Z,65.83
2018-08-31T05:56:26.010Z,65.12
2018-08-31T05:57:26.042Z,67.14
2018-08-31T05:58:26.016Z,66.44
2018-08-31T05:59:25.976Z,66.64
2018-08-31T06:00:25.961Z,66.64
2018-08-31T06:01:25.950Z,66.94
2018-08-31T06:02:25.990Z,66.81
2018-08-31T06:03:25.929Z,66.64
2018-08-31T06:04:25.922Z,66.71
2018-08-31T06:05:25.904Z,66.61
2018-08-31T06:06:25.898Z,66.61
2018-08-31T06:07:25.928Z,66.50
2018-08-31T06:08:25.874Z,66.71
2018-08-31T06:09:25.862Z,66.50
2018-08-31T06:10:25.848Z,66.61
2018-08-31T06:11:25.837Z,66.61
2018-08-31T06:12:25.870Z,66.74
2018-08-31T06:13:25.820Z,67.25
2018-08-31T06:14:25.817Z,67.01
2018-08-31T06:15:25.792Z,67.11
2018-08-31T06:16:25.780Z,67.14
2018-08-31T06:17:25.815Z,67.25
2018-08-31T06:18:25.758Z,67.55
2018-08-31T06:19:25.756Z,67.65
2018-08-31T06:20:25.756Z,67.85
2018-08-31T06:21:25.726Z,68.26
2018-08-31T06:22:25.777Z,68.23
2018-08-31T06:23:25.705Z,68.36
2018-08-31T06:24:25.689Z,67.82
2018-08-31T06:25:25.695Z,68.06
2018-08-31T06:26:25.666Z,68.46
2018-08-31T06:27:25.656Z,68.16
2018-08-31T06:28:25.692Z,68.06
2018-08-31T06:29:25.632Z,69.37
2018-08-31T06:30:25.621Z,68.77
2018-08-31T06:31:25.619Z,69.07
2018-08-31T06:32:25.648Z,69.27
2018-08-31T06:33:25.640Z,68.73
2018-08-31T06:34:25.588Z,69.24
2018-08-31T06:35:25.570Z,68.33
2018-08-31T06:36:25.561Z,68.23
2018-08-31T06:37:25.556Z,67.82
2018-08-31T06:38:25.579Z,68.13
2018-08-31T06:39:25.520Z,68.02
2018-08-31T06:40:25.530Z,68.13
2018-08-31T06:41:25.497Z,67.93
2018-08-31T06:42:25.489Z,67.93
2018-08-31T06:43:25.519Z,67.82
2018-08-31T06:44:25.463Z,67.82
2018-08-31T06:45:25.453Z,68.43
2018-08-31T06:46:25.481Z,68.13
2018-08-31T06:47:25.434Z,68.43
2018-08-31T06:48:25.475Z,68.33
2018-08-31T06:49:25.425Z,68.43
2018-08-31T06:50:25.395Z,68.13
2018-08-31T06:51:25.443Z,67.82
2018-08-31T06:52:25.408Z,67.93
2018-08-31T06:53:25.426Z,68.10
2018-08-31T06:54:25.368Z,68.13
2018-08-31T06:55:25.337Z,68.53
2018-08-31T06:56:25.326Z,68.43
2018-08-31T06:57:25.319Z,68.63
2018-08-31T06:58:25.350Z,68.94
2018-08-31T06:59:25.307Z,68.84
2018-08-31T07:00:25.279Z,68.63
2018-08-31T07:01:25.276Z,68.50
2018-08-31T07:02:25.261Z,67.89
2018-08-31T07:03:25.297Z,67.49
2018-08-31T07:04:25.238Z,68.40
2018-08-31T07:05:25.231Z,67.46
2018-08-31T07:06:25.214Z,67.15
2018-08-31T07:07:25.202Z,67.05
2018-08-31T07:08:25.534Z,67.32
2018-08-31T07:09:25.181Z,66.41
2018-08-31T07:10:25.167Z,66.78
2018-08-31T07:11:25.161Z,65.57
2018-08-31T07:12:25.195Z,66.08
2018-08-31T07:13:25.135Z,65.67
2018-08-31T07:14:25.170Z,65.67
2018-08-31T07:15:25.117Z,65.47
2018-08-31T07:16:25.100Z,65.27
2018-08-31T07:17:25.089Z,65.07
2018-08-31T07:18:25.079Z,65.47
2018-08-31T07:19:25.213Z,64.76
2018-08-31T07:20:25.060Z,64.97
2018-08-31T07:21:25.044Z,65.17
2018-08-31T07:22:25.036Z,65.07
2018-08-31T07:23:25.021Z,65.14
2018-08-31T07:24:25.052Z,64.84
2018-08-31T07:25:24.998Z,65.04
2018-08-31T07:26:25.094Z,64.53
2018-08-31T07:27:24.977Z,64.84
2018-08-31T07:28:24.982Z,65.14
2018-08-31T07:29:24.996Z,64.94
2018-08-31T07:30:24.941Z,64.30
2018-08-31T07:31:24.935Z,64.81
2018-08-31T07:32:24.926Z,63.06
2018-08-31T07:33:24.909Z,63.36
2018-08-31T07:34:24.949Z,63.36
2018-08-31T07:35:24.887Z,63.16
2018-08-31T07:36:24.936Z,62.88
2018-08-31T07:37:24.865Z,63.29
2018-08-31T07:38:24.853Z,63.19
2018-08-31T07:39:24.889Z,64.13
2018-08-31T07:40:24.830Z,64.50
2018-08-31T07:41:24.819Z,64.73
2018-08-31T07:42:24.852Z,64.53
2018-08-31T07:43:24.801Z,64.33
2018-08-31T07:44:24.836Z,64.64
2018-08-31T07:45:24.776Z,64.61
2018-08-31T07:46:24.761Z,64.61
2018-08-31T07:47:24.754Z,64.10
2018-08-31T07:48:24.738Z,63.09
2018-08-31T07:49:24.776Z,62.99
2018-08-31T07:50:24.721Z,63.06
2018-08-31T07:51:24.708Z,63.29
2018-08-31T07:52:24.694Z,63.06
2018-08-31T07:53:24.683Z,63.06
2018-08-31T07:54:24.722Z,62.85
2018-08-31T07:55:24.659Z,62.76
2018-08-31T07:56:24.651Z,62.73
2018-08-31T07:57:24.636Z,63.03
2018-08-31T07:58:24.625Z,62.63
2018-08-31T07:59:24.679Z,62.93
2018-08-31T08:00:24.603Z,62.73
2018-08-31T08:01:24.592Z,62.22
2018-08-31T08:02:24.579Z,62.02
2018-08-31T08:03:24.570Z,62.22
2018-08-31T08:04:24.607Z,62.52
2018-08-31T08:05:24.555Z,62.22
2018-08-31T08:06:24.534Z,62.73
2018-08-31T08:07:24.636Z,62.43
2018-08-31T08:08:24.514Z,62.63
2018-08-31T08:09:24.543Z,62.12
2018-08-31T08:10:24.488Z,62.25
2018-08-31T08:11:24.480Z,62.15
2018-08-31T08:12:24.463Z,62.12
2018-08-31T08:13:24.458Z,62.02
2018-08-31T08:14:24.488Z,62.63
2018-08-31T08:15:24.431Z,62.55
2018-08-31T08:16:24.422Z,62.55
2018-08-31T08:17:24.409Z,62.25
2018-08-31T08:18:24.396Z,62.32
2018-08-31T08:19:24.431Z,62.43
2018-08-31T08:20:24.387Z,63.33
2018-08-31T08:21:24.361Z,63.43
2018-08-31T08:22:24.352Z,62.70
2018-08-31T08:23:24.349Z,62.60
2018-08-31T08:24:24.388Z,62.49
2018-08-31T08:25:24.318Z,62.49
2018-08-31T08:26:24.304Z,63.03
2018-08-31T08:27:24.292Z,63.23
2018-08-31T08:28:24.365Z,63.23
2018-08-31T08:29:24.320Z,62.73
2018-08-31T08:30:24.263Z,63.13
2018-08-31T08:31:24.249Z,63.33
2018-08-31T08:32:24.236Z,63.33
2018-08-31T08:33:24.229Z,63.64
2018-08-31T08:34:24.261Z,63.13
2018-08-31T08:35:24.201Z,63.33
2018-08-31T08:36:24.189Z,63.13
2018-08-31T08:37:24.180Z,63.13
2018-08-31T08:38:24.167Z,63.13
2018-08-31T08:39:24.204Z,62.93
2018-08-31T08:40:24.143Z,63.13
2018-08-31T08:41:24.147Z,62.73
2018-08-31T08:42:24.155Z,62.93
2018-08-31T08:43:24.112Z,63.64
2018-08-31T08:44:24.145Z,62.93
2018-08-31T08:45:24.086Z,63.40
2018-08-31T08:46:24.078Z,63.03
2018-08-31T08:47:24.172Z,63.40
2018-08-31T08:48:24.157Z,63.10
2018-08-31T08:49:24.086Z,62.90
2018-08-31T08:50:24.032Z,63.10
2018-08-31T08:51:24.016Z,63.40
2018-08-31T08:52:24.012Z,63.30
2018-08-31T08:53:23.995Z,63.60
2018-08-31T08:54:24.033Z,63.10
2018-08-31T08:55:23.972Z,62.90
2018-08-31T08:56:23.961Z,63.20
2018-08-31T08:57:23.957Z,62.80
2018-08-31T08:58:24.015Z,62.77
2018-08-31T08:59:23.977Z,63.07
2018-08-31T09:00:23.916Z,62.44
2018-08-31T09:01:23.914Z,62.44
2018-08-31T09:02:23.892Z,61.83
2018-08-31T09:03:23.889Z,61.66
2018-08-31T09:04:23.918Z,61.63
2018-08-31T09:05:23.880Z,61.96
2018-08-31T09:06:23.848Z,61.83
2018-08-31T09:07:23.845Z,62.16
2018-08-31T09:08:23.839Z,61.93
2018-08-31T09:09:23.857Z,61.96
2018-08-31T09:10:23.803Z,62.06
2018-08-31T09:11:23.788Z,62.06
2018-08-31T09:12:23.787Z,61.86
2018-08-31T09:13:23.770Z,62.06
2018-08-31T09:14:23.801Z,61.76
2018-08-31T09:15:23.900Z,62.13
2018-08-31T09:16:23.735Z,62.24
2018-08-31T09:17:23.748Z,62.57
2018-08-31T09:18:23.738Z,62.06
2018-08-31T09:19:23.753Z,62.37
2018-08-31T09:20:23.783Z,62.87
2018-08-31T09:21:23.676Z,62.57
2018-08-31T09:22:23.674Z,62.44
2018-08-31T09:23:23.651Z,62.06
2018-08-31T09:24:23.698Z,62.37
2018-08-31T09:25:23.640Z,62.66
2018-08-31T09:26:23.620Z,62.57
2018-08-31T09:27:23.611Z,62.66
2018-08-31T09:28:23.601Z,62.66
2018-08-31T09:29:23.588Z,62.57
2018-08-31T09:30:23.624Z,62.44
2018-08-31T09:31:23.567Z,62.13
2018-08-31T09:32:23.552Z,61.93
2018-08-31T09:33:23.553Z,61.83
2018-08-31T09:34:23.530Z,61.53
2018-08-31T09:35:23.573Z,61.30
2018-08-31T09:36:23.510Z,61.30
2018-08-31T09:37:23.497Z,60.89
2018-08-31T09:38:23.551Z,61.00
2018-08-31T09:39:23.478Z,61.00
2018-08-31T09:40:23.508Z,60.67
2018-08-31T09:41:23.480Z,60.57
2018-08-31T09:42:23.442Z,60.47
2018-08-31T09:43:23.428Z,60.36
2018-08-31T09:44:23.419Z,60.27
2018-08-31T09:45:23.616Z,60.36
2018-08-31T09:46:23.396Z,60.24
2018-08-31T09:47:23.386Z,59.83
2018-08-31T09:48:23.373Z,59.60
2018-08-31T09:49:23.360Z,59.10
2018-08-31T09:50:23.397Z,59.50
2018-08-31T09:51:23.345Z,59.50
2018-08-31T09:52:23.332Z,59.60
2018-08-31T09:53:23.318Z,58.77
2018-08-31T09:54:23.308Z,58.67
2018-08-31T09:55:23.340Z,59.08
2018-08-31T09:56:23.280Z,60.31
2018-08-31T09:57:23.296Z,59.70
2018-08-31T09:58:23.263Z,60.21
2018-08-31T09:59:23.249Z,59.60
2018-08-31T10:00:23.312Z,60.21
2018-08-31T10:01:23.231Z,59.20
2018-08-31T10:02:23.220Z,59.50
2018-08-31T10:03:23.203Z,59.70
2018-08-31T10:04:23.195Z,59.60
2018-08-31T10:05:23.235Z,59.70
2018-08-31T10:06:23.187Z,60.28
2018-08-31T10:07:23.157Z,59.38
2018-08-31T10:08:23.146Z,58.67
2018-08-31T10:09:23.134Z,59.08
2018-08-31T10:10:23.170Z,58.57
2018-08-31T10:11:23.111Z,57.84
2018-08-31T10:12:23.104Z,58.94
2018-08-31T10:13:23.104Z,58.87
2018-08-31T10:14:23.085Z,58.75
2018-08-31T10:15:23.112Z,58.54
2018-08-31T10:16:23.055Z,58.84
2018-08-31T10:17:23.044Z,58.94
2018-08-31T10:18:23.036Z,58.75
2018-08-31T10:19:23.023Z,58.54
2018-08-31T10:20:23.061Z,58.75
2018-08-31T10:21:23.004Z,58.84
2018-08-31T10:22:22.989Z,59.14
2018-08-31T10:23:22.978Z,58.84
2018-08-31T10:24:22.973Z,58.14
2018-08-31T10:25:23.000Z,58.75
2018-08-31T10:26:22.950Z,58.54
2018-08-31T10:27:22.931Z,59.08
2018-08-31T10:28:22.921Z,58.97
2018-08-31T10:29:22.910Z,58.54
2018-08-31T10:30:22.942Z,58.94
2018-08-31T10:31:22.884Z,58.64
2018-08-31T10:32:22.877Z,59.05
2018-08-31T10:33:22.863Z,58.84
2018-08-31T10:34:22.853Z,58.24
2018-08-31T10:35:22.884Z,58.04
2018-08-31T10:36:22.830Z,57.94
2018-08-31T10:37:22.819Z,58.22
2018-08-31T10:38:22.809Z,57.71
2018-08-31T10:39:22.794Z,57.11
2018-08-31T10:40:22.854Z,56.71
2018-08-31T10:41:22.774Z,57.11
2018-08-31T10:42:22.764Z,58.24
2018-08-31T10:43:22.759Z,58.14
2018-08-31T10:44:22.742Z,58.14
2018-08-31T10:45:22.777Z,58.04
2018-08-31T10:46:22.724Z,58.07
2018-08-31T10:47:22.708Z,58.54
2018-08-31T10:48:22.696Z,58.84
2018-08-31T10:49:22.684Z,58.44
2018-08-31T10:50:22.720Z,58.54
2018-08-31T10:51:22.667Z,58.22
2018-08-31T10:52:22.651Z,57.91
2018-08-31T10:53:22.640Z,57.11
2018-08-31T10:54:22.628Z,57.11
2018-08-31T10:55:22.663Z,57.71
2018-08-31T10:56:22.608Z,56.58
2018-08-31T10:57:22.609Z,56.71
2018-08-31T10:58:22.585Z,56.71
2018-08-31T10:59:22.579Z,56.81
2018-08-31T11:00:22.607Z,57.28
2018-08-31T11:01:22.551Z,57.21
2018-08-31T11:02:22.539Z,57.31
2018-08-31T11:03:22.528Z,57.01
2018-08-31T11:04:22.517Z,57.01
2018-08-31T11:05:22.650Z,57.08
2018-08-31T11:06:22.497Z,56.78
2018-08-31T11:07:22.485Z,56.68
2018-08-31T11:08:22.472Z,56.48
2018-08-31T11:09:22.462Z,55.95
2018-08-31T11:10:22.503Z,56.15
2018-08-31T11:11:22.446Z,55.85
2018-08-31T11:12:22.437Z,55.35
2018-08-31T11:13:22.423Z,55.85
2018-08-31T11:14:22.406Z,56.05
2018-08-31T11:15:22.460Z,56.26
2018-08-31T11:16:22.430Z,56.05
2018-08-31T11:17:22.375Z,56.15
2018-08-31T11:18:22.366Z,55.65
2018-08-31T11:19:22.361Z,55.85
2018-08-31T11:20:22.337Z,55.55
2018-08-31T11:21:22.373Z,55.45
2018-08-31T11:22:22.313Z,55.65
2018-08-31T11:23:22.304Z,55.65
2018-08-31T11:24:22.294Z,55.15
2018-08-31T11:25:22.280Z,55.75
2018-08-31T11:26:22.324Z,55.45
2018-08-31T11:27:22.258Z,55.45
2018-08-31T11:28:22.252Z,55.85
2018-08-31T11:29:22.240Z,55.65
2018-08-31T11:30:22.225Z,55.55
2018-08-31T11:31:22.262Z,56.02
2018-08-31T11:32:22.208Z,55.35
2018-08-31T11:33:22.191Z,54.43
2018-08-31T11:34:22.181Z,55.32
2018-08-31T11:35:22.173Z,55.32
2018-08-31T11:36:22.204Z,54.43
2018-08-31T11:37:22.146Z,54.62
2018-08-31T11:38:22.135Z,54.52
2018-08-31T11:39:22.125Z,54.50
2018-08-31T11:40:22.117Z,54.30
2018-08-31T11:41:22.145Z,54.72
2018-08-31T11:42:22.089Z,54.22
2018-08-31T11:43:22.104Z,54.12
2018-08-31T11:44:22.069Z,55.52
2018-08-31T11:45:22.060Z,54.20
2018-08-31T11:46:22.089Z,54.72
2018-08-31T11:47:22.033Z,54.80
2018-08-31T11:48:22.026Z,54.00
2018-08-31T11:49:22.012Z,53.80
2018-08-31T11:50:22.000Z,54.39
2018-08-31T11:51:22.035Z,53.69
2018-08-31T11:52:21.981Z,53.69
2018-08-31T11:53:21.964Z,53.30
2018-08-31T11:54:21.952Z,53.80
2018-08-31T11:55:22.058Z,53.50
2018-08-31T11:56:21.984Z,53.89
2018-08-31T11:57:21.922Z,54.30
2018-08-31T11:58:21.948Z,53.87
2018-08-31T11:59:21.899Z,54.10
2018-08-31T12:00:21.883Z,53.47
2018-08-31T12:01:21.971Z,54.00
2018-08-31T12:02:21.864Z,54.07
2018-08-31T12:03:21.856Z,53.57
2018-08-31T12:04:21.843Z,53.37
2018-08-31T12:05:21.827Z,53.77
2018-08-31T12:06:21.859Z,53.67
2018-08-31T12:07:21.809Z,52.37
2018-08-31T12:08:21.793Z,52.77
2018-08-31T12:09:21.783Z,52.97
2018-08-31T12:10:21.774Z,52.74
2018-08-31T12:11:21.804Z,52.67
2018-08-31T12:12:21.750Z,52.77
2018-08-31T12:13:21.743Z,52.74
2018-08-31T12:14:21.723Z,52.04
2018-08-31T12:15:21.712Z,52.34
2018-08-31T12:16:21.747Z,52.74
2018-08-31T12:17:21.695Z,52.64
2018-08-31T12:18:21.682Z,52.24
2018-08-31T12:19:21.666Z,52.34
2018-08-31T12:20:21.661Z,51.84
2018-08-31T12:21:21.821Z,51.64
2018-08-31T12:22:21.632Z,51.64
2018-08-31T12:23:21.623Z,51.84
2018-08-31T12:24:21.610Z,52.24
2018-08-31T12:25:21.598Z,52.14
2018-08-31T12:26:21.630Z,52.72
2018-08-31T12:27:21.576Z,52.24
2018-08-31T12:28:21.602Z,52.55
2018-08-31T12:29:21.555Z,52.14
2018-08-31T12:30:21.546Z,52.42
2018-08-31T12:31:21.584Z,52.34
2018-08-31T12:32:21.519Z,51.64
2018-08-31T12:33:21.506Z,50.94
2018-08-31T12:34:21.500Z,51.04
2018-08-31T12:35:21.485Z,51.07
2018-08-31T12:36:21.518Z,51.27
2018-08-31T12:37:21.461Z,52.07
2018-08-31T12:38:21.452Z,52.47
2018-08-31T12:39:21.450Z,52.67
2018-08-31T12:40:21.426Z,52.67
2018-08-31T12:41:21.460Z,52.67
2018-08-31T12:42:21.403Z,52.77
2018-08-31T12:43:21.390Z,52.47
2018-08-31T12:44:21.395Z,52.80
2018-08-31T12:45:21.369Z,52.47
2018-08-31T12:46:21.401Z,51.99
2018-08-31T12:47:21.346Z,52.49
2018-08-31T12:48:21.338Z,52.37
2018-08-31T12:49:21.322Z,52.67
2018-08-31T12:50:21.319Z,52.47
2018-08-31T12:51:21.349Z,52.07
2018-08-31T12:52:21.289Z,52.17
2018-08-31T12:53:21.282Z,52.59
2018-08-31T12:54:21.269Z,52.57
2018-08-31T12:55:21.256Z,52.77
2018-08-31T12:56:21.290Z,52.67
2018-08-31T12:57:21.239Z,52.67
2018-08-31T12:58:21.220Z,52.97
2018-08-31T12:59:21.219Z,52.87
2018-08-31T13:00:21.199Z,52.77
2018-08-31T13:01:21.235Z,53.07
2018-08-31T13:02:21.176Z,53.27
2018-08-31T13:03:21.203Z,52.97
2018-08-31T13:04:21.152Z,52.47
2018-08-31T13:05:21.146Z,52.57
2018-08-31T13:06:21.188Z,52.67
2018-08-31T13:07:21.117Z,52.57
2018-08-31T13:08:21.106Z,52.87
2018-08-31T13:09:21.095Z,52.27
2018-08-31T13:10:21.084Z,52.37
2018-08-31T13:11:21.073Z,52.27
2018-08-31T13:12:21.106Z,52.27
2018-08-31T13:13:21.049Z,52.07
2018-08-31T13:14:21.047Z,52.27
2018-08-31T13:15:21.027Z,51.37
2018-08-31T13:16:21.017Z,51.46
2018-08-31T13:17:21.052Z,51.46
2018-08-31T13:18:20.994Z,51.37
2018-08-31T13:19:20.981Z,51.57
2018-08-31T13:20:20.973Z,51.27
2018-08-31T13:21:20.961Z,51.27
2018-08-31T13:22:20.999Z,51.77
2018-08-31T13:23:20.939Z,51.87
2018-08-31T13:24:20.926Z,51.07
2018-08-31T13:25:20.982Z,51.07
2018-08-31T13:26:20.944Z,51.37
2018-08-31T13:27:20.945Z,51.67
2018-08-31T13:28:20.889Z,51.17
2018-08-31T13:29:20.870Z,51.19
2018-08-31T13:30:20.865Z,51.07
2018-08-31T13:31:20.856Z,51.39
2018-08-31T13:32:20.892Z,51.67
2018-08-31T13:33:20.830Z,50.67
2018-08-31T13:34:20.812Z,51.57
2018-08-31T13:35:20.897Z,51.27
2018-08-31T13:36:20.791Z,51.57
2018-08-31T13:37:20.941Z,51.46
2018-08-31T13:38:20.866Z,50.76
2018-08-31T13:39:20.765Z,51.07
2018-08-31T13:40:20.752Z,50.76
2018-08-31T13:41:20.748Z,51.07
2018-08-31T13:42:20.774Z,50.76
2018-08-31T13:43:20.712Z,50.67
2018-08-31T13:44:20.704Z,50.76
2018-08-31T13:45:20.689Z,50.74
2018-08-31T13:46:20.995Z,51.44
2018-08-31T13:47:20.711Z,50.34
2018-08-31T13:48:20.656Z,51.04
2018-08-31T13:49:20.643Z,49.74
2018-08-31T13:50:20.632Z,49.24
2018-08-31T13:51:20.619Z,49.96
2018-08-31T13:52:20.659Z,49.87